createdAt,value
2018-12-18T00:00:02.512Z,42.70
2018-12-18T00:05:14.538Z,52.60
2018-12-18T00:10:18.816Z,46.47
2018-12-18T00:15:23.051Z,46.77
2018-12-18T00:20:27.239Z,40.57
2018-12-18T00:25:31.696Z,42.30
2018-12-18T00:30:36.980Z,41.13
2018-12-18T00:35:41.248Z,48.50
2018-12-18T00:40:45.597Z,46.87
2018-12-18T00:45:50.813Z,41.07
2018-12-18T00:50:55.090Z,38.13
2018-12-18T00:55:59.188Z,42.57
2018-12-18T01:01:03.597Z,44.37
2018-12-18T01:06:08.868Z,44.37
2018-12-18T01:11:13.017Z,44.80
2018-12-18T01:16:17.239Z,41.50
2018-12-18T01:21:21.427Z,50.63
2018-12-18T01:26:26.026Z,51.57
2018-12-18T01:31:30.358Z,47.37
2018-12-18T01:36:34.722Z,46.77
2018-12-18T01:41:44.122Z,44.77
2018-12-18T01:46:48.550Z,48.43
2018-12-18T01:51:53.026Z,51.70
2018-12-18T01:56:57.335Z,51.43
2018-12-18T02:02:01.901Z,45.73
2018-12-18T02:07:06.097Z,45.20
2018-12-18T02:12:13.301Z,47.47
2018-12-18T02:17:20.141Z,48.33
2018-12-18T02:22:24.316Z,51.80
2018-12-18T02:27:28.515Z,51.73
2018-12-18T02:32:32.881Z,51.67
2018-12-18T02:37:37.203Z,52.30
2018-12-18T02:42:41.350Z,49.13
2018-12-18T02:47:46.567Z,51.23
2018-12-18T02:52:51.623Z,54.93
2018-12-18T02:57:55.993Z,49.90
2018-12-18T03:03:00.205Z,53.70
2018-12-18T03:08:04.402Z,48.13
2018-12-18T03:13:08.665Z,51.47
2018-12-18T03:18:13.035Z,46.90
2018-12-18T03:23:17.269Z,45.23
2018-12-18T03:28:21.431Z,47.03
2018-12-18T03:33:25.747Z,58.47
2018-12-18T03:38:30.414Z,47.50
2018-12-18T03:43:34.684Z,48.63
2018-12-18T03:48:38.978Z,50.13
2018-12-18T03:53:43.069Z,55.20
2018-12-18T03:58:47.227Z,49.43
2018-12-18T04:03:51.679Z,54.67
2018-12-18T04:08:56.727Z,57.73
2018-12-18T04:14:00.933Z,46.53
2018-12-18T04:19:06.722Z,45.47
2018-12-18T04:24:11.098Z,52.33
2018-12-18T04:29:15.425Z,48.70
2018-12-18T04:34:21.111Z,47.03
2018-12-18T04:39:25.625Z,56.73
2018-12-18T04:44:29.959Z,51.17
2018-12-18T04:49:34.201Z,50.67
2018-12-18T04:54:38.717Z,49.40
2018-12-18T04:59:43.092Z,41.07
2018-12-18T05:04:50.568Z,44.50
2018-12-18T05:09:54.101Z,45.17
2018-12-18T05:14:58.282Z,45.43
2018-12-18T05:20:03.966Z,49.63
2018-12-18T05:25:08.325Z,53.10
2018-12-18T05:30:12.974Z,46.47
2018-12-18T05:35:17.448Z,44.30
2018-12-18T05:40:21.923Z,44.43
2018-12-18T05:45:26.496Z,46.60
2018-12-18T05:50:31.206Z,45.33
2018-12-18T05:55:35.860Z,44.57
2018-12-18T06:00:41.660Z,48.93
2018-12-18T06:05:46.144Z,53.53
2018-12-18T06:10:50.630Z,54.40
2018-12-18T06:15:55.010Z,47.83
2018-12-18T06:21:02.848Z,54.90
2018-12-18T06:26:07.026Z,49.17
2018-12-18T06:31:11.568Z,50.97
2018-12-18T06:36:16.216Z,48.00
2018-12-18T06:41:20.661Z,51.80
2018-12-18T06:46:24.888Z,52.23
2018-12-18T06:51:32.978Z,58.50
2018-12-18T06:56:38.014Z,50.07
2018-12-18T07:01:42.444Z,46.20
2018-12-18T07:06:46.886Z,49.63
2018-12-18T07:11:51.210Z,48.23
2018-12-18T07:16:55.376Z,46.03
2018-12-18T07:21:59.806Z,49.10
2018-12-18T07:27:04.576Z,47.57
2018-12-18T07:32:09.094Z,37.70
2018-12-18T07:37:13.919Z,39.13
2018-12-18T07:42:18.356Z,55.50
2018-12-18T07:47:23.472Z,50.23
2018-12-18T07:52:28.308Z,48.57
2018-12-18T07:57:32.790Z,46.57
2018-12-18T08:02:37.184Z,42.20
2018-12-18T08:07:42.059Z,40.03
2018-12-18T08:12:47.050Z,39.07
2018-12-18T08:17:51.220Z,36.03
2018-12-18T08:22:55.596Z,41.13
2018-12-18T08:27:59.825Z,42.33
2018-12-18T08:33:04.170Z,40.03
2018-12-18T08:38:08.674Z,37.67
2018-12-18T08:43:18.273Z,36.13
2018-12-18T08:48:22.812Z,44.57
2018-12-18T08:53:27.142Z,36.90
2018-12-18T08:58:31.616Z,37.47
2018-12-18T09:03:36.181Z,31.53
2018-12-18T09:08:40.787Z,34.37
2018-12-18T09:13:46.440Z,31.83
2018-12-18T09:18:50.972Z,34.27
2018-12-18T09:23:59.418Z,33.43
2018-12-18T09:29:04.951Z,34.60
2018-12-18T09:34:09.538Z,35.10
2018-12-18T09:39:23.109Z,32.13
2018-12-18T09:44:29.781Z,30.00
2018-12-18T09:49:34.687Z,29.90
2018-12-18T09:54:39.169Z,34.00
2018-12-18T10:09:09.777Z,31.23
2018-12-18T10:14:14.627Z,31.43
2018-12-18T10:19:19.241Z,31.57
2018-12-18T10:24:24.012Z,38.63
2018-12-18T10:29:28.553Z,26.40
2018-12-18T10:34:32.773Z,28.90
2018-12-18T10:39:37.101Z,39.40
2018-12-18T10:44:41.639Z,25.70
2018-12-18T10:49:45.938Z,29.53
2018-12-18T10:54:50.622Z,30.27
2018-12-18T10:59:55.383Z,25.80
2018-12-18T11:05:02.265Z,24.23
2018-12-18T11:10:11.800Z,27.70
2018-12-18T11:15:16.325Z,27.40
2018-12-18T11:20:20.687Z,35.30
2018-12-18T11:25:25.216Z,29.93
2018-12-18T11:30:30.047Z,30.40
2018-12-18T11:35:34.661Z,35.10
2018-12-18T11:40:39.049Z,25.67
2018-12-18T11:45:43.337Z,26.23
2018-12-18T11:50:48.249Z,25.67
2018-12-18T11:55:52.820Z,28.23
2018-12-18T12:00:57.122Z,33.73
2018-12-18T12:06:01.796Z,31.17
2018-12-18T12:11:06.313Z,32.03
2018-12-18T12:16:11.244Z,29.07
2018-12-18T12:21:15.625Z,27.63
2018-12-18T12:26:34.707Z,26.13
2018-12-18T12:31:43.999Z,24.40
2018-12-18T12:36:48.251Z,24.23
2018-12-18T12:41:52.857Z,24.30
2018-12-18T12:46:57.203Z,26.60
2018-12-18T12:52:01.735Z,33.30
2018-12-18T12:57:06.260Z,36.17
2018-12-18T13:02:10.624Z,24.93
2018-12-18T13:07:14.829Z,26.33
2018-12-18T13:12:19.170Z,33.67
2018-12-18T13:17:23.600Z,31.13
2018-12-18T13:22:27.967Z,34.67
2018-12-18T13:27:32.137Z,42.57
2018-12-18T13:32:36.501Z,30.97
2018-12-18T13:37:40.649Z,28.50
2018-12-18T13:42:44.963Z,29.43
2018-12-18T13:47:49.341Z,31.97
2018-12-18T13:52:53.865Z,37.57
2018-12-18T13:57:59.319Z,34.23
2018-12-18T14:03:04.263Z,32.97
2018-12-18T14:08:08.949Z,32.30
2018-12-18T14:13:13.239Z,30.00
2018-12-18T14:18:17.651Z,29.50
2018-12-18T14:23:22.093Z,26.67
2018-12-18T14:28:26.662Z,26.03
2018-12-18T14:33:31.213Z,29.03
2018-12-18T14:38:35.842Z,27.07
2018-12-18T14:43:45.327Z,27.90
2018-12-18T14:48:50.330Z,27.77
2018-12-18T14:53:55.330Z,25.17
2018-12-18T14:58:59.713Z,24.83
2018-12-18T15:04:04.296Z,26.87
2018-12-18T15:09:08.844Z,27.90
2018-12-18T15:14:13.224Z,27.47
2018-12-18T15:19:17.688Z,24.63
2018-12-18T15:24:21.860Z,26.17
2018-12-18T15:29:26.492Z,33.90
2018-12-18T15:34:31.048Z,27.83
2018-12-18T15:39:35.770Z,28.07
2018-12-18T15:44:40.154Z,34.10
2018-12-18T15:49:44.625Z,31.67
2018-12-18T15:54:50.037Z,30.57
2018-12-18T15:59:54.462Z,31.80
2018-12-18T16:04:58.997Z,34.70
2018-12-18T16:10:04.017Z,30.53
2018-12-18T16:15:09.380Z,31.00
2018-12-18T16:20:14.156Z,30.73
2018-12-18T16:25:20.381Z,32.57
2018-12-18T16:30:25.245Z,35.93
2018-12-18T16:35:30.101Z,33.00
2018-12-18T16:40:34.845Z,34.23
2018-12-18T16:45:39.417Z,37.47
2018-12-18T16:50:44.479Z,32.93
2018-12-18T16:55:48.795Z,29.60
2018-12-18T17:00:54.551Z,33.30
2018-12-18T17:05:59.683Z,38.63
2018-12-18T17:11:04.467Z,32.37
2018-12-18T17:16:09.114Z,34.90
2018-12-18T17:21:14.753Z,35.10
2018-12-18T17:26:19.283Z,38.80
2018-12-18T17:31:23.658Z,34.73
2018-12-18T17:36:28.155Z,35.97
2018-12-18T17:41:32.563Z,29.97
2018-12-18T17:46:37.433Z,28.33
2018-12-18T17:51:47.147Z,30.47
2018-12-18T17:56:51.742Z,32.77
2018-12-18T18:01:56.151Z,32.00
2018-12-18T18:07:01.399Z,29.87
2018-12-18T18:12:10.794Z,31.73
2018-12-18T18:17:15.331Z,33.93
2018-12-18T18:22:29.075Z,34.47
2018-12-18T18:27:33.988Z,35.73
2018-12-18T18:32:38.689Z,36.07
2018-12-18T18:37:49.620Z,36.77
2018-12-18T18:42:50.568Z,33.87
2018-12-18T18:47:55.221Z,32.17
2018-12-18T18:53:00.391Z,29.87
2018-12-18T18:58:04.989Z,31.47
2018-12-18T19:03:09.957Z,33.47
2018-12-18T19:08:14.259Z,30.63
2018-12-18T19:13:24.043Z,31.13
2018-12-18T19:18:28.313Z,32.23
2018-12-18T19:23:39.033Z,36.87
2018-12-18T19:28:50.243Z,35.27
2018-12-18T19:33:52.271Z,38.40
2018-12-18T19:38:59.958Z,35.90
2018-12-18T19:44:10.297Z,42.53
2018-12-18T19:49:14.861Z,39.97
2018-12-18T19:54:19.997Z,42.33
2018-12-18T19:59:27.231Z,37.67
2018-12-18T20:04:32.070Z,39.40
2018-12-18T20:09:36.722Z,36.43
2018-12-18T20:14:41.442Z,38.07
2018-12-18T20:19:46.352Z,37.43
2018-12-18T20:24:51.050Z,38.03
2018-12-18T20:29:56.822Z,34.60
2018-12-18T20:35:03.016Z,35.03
2018-12-18T20:40:09.702Z,39.03
2018-12-18T20:45:14.450Z,38.73
2018-12-18T20:50:19.296Z,42.53
2018-12-18T20:55:25.054Z,39.60
2018-12-18T21:00:29.649Z,41.20
2018-12-18T21:05:34.233Z,39.70
2018-12-18T21:10:39.426Z,41.93
2018-12-18T21:15:43.905Z,41.80
2018-12-18T21:20:48.639Z,39.27
2018-12-18T21:25:56.113Z,41.47
2018-12-18T21:31:01.095Z,39.23
2018-12-18T21:36:05.678Z,45.37
2018-12-18T21:41:10.095Z,44.93
2018-12-18T21:46:14.585Z,48.77
2018-12-18T21:51:19.996Z,47.27
2018-12-18T21:56:24.509Z,49.23
2018-12-18T22:01:29.309Z,52.20
2018-12-18T22:06:34.269Z,48.17
2018-12-18T22:11:38.542Z,48.97
2018-12-18T22:16:43.462Z,47.00
2018-12-18T22:21:48.038Z,47.43
2018-12-18T22:26:52.286Z,51.70
2018-12-18T22:31:56.600Z,53.53
2018-12-18T22:37:01.472Z,54.87
2018-12-18T22:42:05.844Z,56.23
2018-12-18T22:47:11.368Z,52.50
2018-12-18T22:52:17.518Z,58.03
2018-12-18T22:57:22.081Z,58.73
2018-12-18T23:02:26.533Z,55.83
2018-12-18T23:07:31.050Z,53.23
2018-12-18T23:12:37.646Z,50.20
2018-12-18T23:17:43.383Z,52.93
2018-12-18T23:22:52.739Z,51.20
2018-12-18T23:27:56.978Z,50.77
2018-12-18T23:33:02.055Z,52.50
2018-12-18T23:38:06.610Z,49.47
2018-12-18T23:43:11.437Z,46.00
2018-12-18T23:48:16.137Z,55.87
2018-12-18T23:53:29.627Z,52.43
2018-12-18T23:58:33.907Z,54.77
